Time;durP1;ratioP1;P1;durP2;ratioP2;P2;SDS_P1;SDS_P2;PMS_P1;PMS_P2;Temp;Humidity;BMP_temperature;BMP_pressure;BME280_temperature;BME280_humidity;BME280_pressure;Samples;Min_cycle;Max_cycle;Signal;HPM_P1;HPM_P2
2023/08/04 00:00:32;;;;;;;4.60;1.55;;;;;;;9.17;100.00;92566.63;2086472;28;20466;-84
2023/08/04 00:01:33;;;;;;;2.08;0.80;;;;;;;9.30;100.00;92573.50;2076757;28;20036;-86
2023/08/04 00:02:34;;;;;;;4.32;1.00;;;;;;;9.29;100.00;92568.59;2082680;28;20059;-86
2023/08/04 00:03:35;;;;;;;2.65;1.17;;;;;;;9.28;100.00;92575.09;2096192;28;20100;-86
2023/08/04 00:04:36;;;;;;;1.77;1.10;;;;;;;9.30;100.00;92570.81;2090333;28;20025;-85
2023/08/04 00:05:37;;;;;;;4.13;0.90;;;;;;;9.19;100.00;92564.28;2084514;28;20176;-84
2023/08/04 00:06:38;;;;;;;3.75;1.00;;;;;;;9.18;100.00;92573.47;2093249;28;20025;-86
2023/08/04 00:07:39;;;;;;;4.53;1.00;;;;;;;9.16;100.00;92571.19;2090790;28;20044;-83
2023/08/04 00:08:40;;;;;;;3.15;0.98;;;;;;;9.07;100.00;92576.38;2096229;28;20023;-84
2023/08/04 00:09:41;;;;;;;2.05;0.60;;;;;;;9.15;100.00;92576.97;2082442;28;20056;-85
2023/08/04 00:10:42;;;;;;;4.00;1.00;;;;;;;9.08;100.00;92578.63;2089882;28;20032;-84
2023/08/04 00:11:42;;;;;;;4.75;1.30;;;;;;;9.08;100.00;92575.94;2094449;28;20028;-84
2023/08/04 00:12:43;;;;;;;3.20;1.13;;;;;;;9.11;100.00;92573.63;2082463;28;20112;-84
2023/08/04 00:13:57;;;;;;;4.25;1.00;;;;;;;9.03;100.00;92570.38;2082251;28;20026;-85
2023/08/04 00:14:58;;;;;;;2.35;0.95;;;;;;;8.97;100.00;92572.06;2098767;28;20023;-83
2023/08/04 00:16:09;;;;;;;3.50;1.00;;;;;;;8.90;100.00;92572.97;2098765;28;20013;-84
2023/08/04 00:17:10;;;;;;;4.95;1.10;;;;;;;8.92;100.00;92578.66;2089521;28;20094;-84
2023/08/04 00:18:11;;;;;;;6.03;1.10;;;;;;;8.97;100.00;92582.72;2090221;28;20059;-83
2023/08/04 00:19:12;;;;;;;4.22;1.13;;;;;;;8.89;100.00;92576.81;2090432;28;20017;-84
2023/08/04 00:20:13;;;;;;;2.25;1.00;;;;;;;9.05;100.00;92578.72;2094078;28;20070;-85
2023/08/04 00:21:14;;;;;;;2.75;0.82;;;;;;;8.98;100.00;92573.56;2090506;28;20041;-86
2023/08/04 00:22:15;;;;;;;6.68;1.15;;;;;;;8.90;100.00;92583.63;2085935;28;20582;-83
2023/08/04 00:23:16;;;;;;;3.80;1.10;;;;;;;8.83;100.00;92581.91;2094987;28;20385;-83
2023/08/04 00:24:17;;;;;;;2.65;1.00;;;;;;;8.73;100.00;92582.88;2082227;28;20029;-84
2023/08/04 00:25:18;;;;;;;4.40;1.00;;;;;;;8.77;100.00;92586.22;2086041;28;20017;-85
2023/08/04 00:26:19;;;;;;;3.30;1.20;;;;;;;8.80;100.00;92587.31;2090808;28;20025;-86
2023/08/04 00:27:20;;;;;;;2.35;0.90;;;;;;;8.88;100.00;92579.91;2106933;28;20024;-84
2023/08/04 00:28:22;;;;;;;1.70;0.93;;;;;;;8.95;100.00;92575.13;2106994;28;20110;-82
2023/08/04 00:29:24;;;;;;;3.17;0.98;;;;;;;9.00;100.00;92579.22;2090767;28;20094;-83
2023/08/04 00:30:26;;;;;;;4.50;1.15;;;;;;;8.90;100.00;92577.56;2090376;28;20377;-83
2023/08/04 00:31:27;;;;;;;3.25;1.15;;;;;;;8.89;100.00;92584.81;2090630;28;20488;-82
2023/08/04 00:32:28;;;;;;;4.90;1.00;;;;;;;8.83;100.00;92587.25;2082165;28;20488;-84
2023/08/04 00:33:29;;;;;;;4.43;0.98;;;;;;;8.81;100.00;92580.81;2085240;28;20063;-84
2023/08/04 00:34:30;;;;;;;3.92;1.20;;;;;;;8.83;100.00;92586.50;2090405;28;20025;-84
2023/08/04 00:35:31;;;;;;;3.65;1.02;;;;;;;8.85;100.00;92592.13;2089997;28;20476;-84
2023/08/04 00:36:32;;;;;;;4.40;1.10;;;;;;;8.83;100.00;92589.16;2082557;28;20025;-82
2023/08/04 00:37:34;;;;;;;5.70;1.10;;;;;;;8.88;100.00;92588.66;2098756;28;20035;-81
2023/08/04 00:38:35;;;;;;;1.85;0.90;;;;;;;8.77;100.00;92585.47;2094166;28;20052;-85
2023/08/04 00:39:36;;;;;;;2.72;1.00;;;;;;;8.56;100.00;92584.81;2098605;28;20033;-83
2023/08/04 00:40:37;;;;;;;1.60;0.88;;;;;;;8.54;100.00;92589.81;2097285;28;20078;-84
2023/08/04 00:41:38;;;;;;;1.67;1.05;;;;;;;8.56;100.00;92590.16;2096200;28;20028;-85
2023/08/04 00:42:39;;;;;;;4.20;1.15;;;;;;;8.62;100.00;92592.31;2090367;28;20029;-83
2023/08/04 00:43:40;;;;;;;3.50;0.95;;;;;;;8.62;100.00;92590.41;2086794;28;20048;-83
2023/08/04 00:44:41;;;;;;;2.85;1.15;;;;;;;8.70;100.00;92585.66;2090123;28;20032;-83
2023/08/04 00:45:42;;;;;;;3.38;1.17;;;;;;;8.64;100.00;92589.97;2096911;28;20024;-81
2023/08/04 00:46:43;;;;;;;4.20;1.02;;;;;;;8.65;100.00;92584.25;2090602;28;20575;-84
2023/08/04 00:47:44;;;;;;;3.92;0.93;;;;;;;8.69;100.00;92586.81;2082182;28;20087;-83
2023/08/04 00:48:45;;;;;;;1.10;0.90;;;;;;;8.71;100.00;92584.50;2095402;28;20025;-83
2023/08/04 00:49:48;;;;;;;2.05;0.90;;;;;;;8.74;100.00;92584.41;2090200;28;20025;-86
2023/08/04 00:50:49;;;;;;;3.83;0.98;;;;;;;8.74;100.00;92579.09;2082276;28;20497;-84
2023/08/04 00:51:50;;;;;;;3.35;1.00;;;;;;;8.43;100.00;92586.63;2093069;28;20020;-84
2023/08/04 00:52:51;;;;;;;1.70;1.00;;;;;;;8.51;100.00;92590.63;2089987;28;20025;-85
2023/08/04 00:53:53;;;;;;;3.17;0.98;;;;;;;8.51;100.00;92587.22;2096172;28;20063;-84
2023/08/04 00:54:54;;;;;;;2.65;0.98;;;;;;;8.57;100.00;92588.22;2097081;28;20106;-84
2023/08/04 00:55:55;;;;;;;2.90;1.20;;;;;;;8.66;100.00;92590.31;2080676;28;20017;-84
2023/08/04 00:56:58;;;;;;;1.55;1.00;;;;;;;8.55;100.00;92583.31;2077941;28;20445;-82
2023/08/04 00:58:01;;;;;;;4.65;1.00;;;;;;;8.42;100.00;92595.03;2098522;28;20028;-85
2023/08/04 00:59:02;;;;;;;5.05;1.00;;;;;;;8.36;100.00;92583.34;2090855;28;20025;-83
2023/08/04 01:00:03;;;;;;;2.40;1.00;;;;;;;8.39;100.00;92588.63;2098221;28;20497;-85
2023/08/04 01:01:04;;;;;;;1.50;0.85;;;;;;;8.43;100.00;92583.97;2089955;28;20445;-86
2023/08/04 01:02:06;;;;;;;4.25;1.10;;;;;;;8.44;100.00;92582.81;2106103;28;20443;-84
2023/08/04 01:03:07;;;;;;;2.53;1.10;;;;;;;8.51;100.00;92590.63;2097788;28;20028;-83
2023/08/04 01:04:08;;;;;;;3.85;1.25;;;;;;;8.50;100.00;92591.78;2089796;28;20090;-84
2023/08/04 01:05:09;;;;;;;1.35;0.88;;;;;;;8.54;100.00;92584.47;2076048;28;20026;-84
2023/08/04 01:06:31;;;;;;;2.67;1.00;;;;;;;8.48;100.00;92585.41;2081311;28;20041;-84
2023/08/04 01:07:46;;;;;;;2.20;1.08;;;;;;;8.52;100.00;92592.13;2093538;28;20169;-83
2023/08/04 01:08:58;;;;;;;2.85;1.05;;;;;;;8.55;100.00;92575.31;2085633;28;20446;-83
2023/08/04 01:10:19;;;;;;;2.53;1.30;;;;;;;8.56;100.00;92574.16;2077580;28;20021;-84
2023/08/04 01:11:27;;;;;;;4.50;1.00;;;;;;;8.58;100.00;92574.50;2092526;28;20075;-85
2023/08/04 01:12:51;;;;;;;3.28;1.20;;;;;;;8.59;100.00;92569.91;2107141;28;20016;-84
2023/08/04 01:13:53;;;;;;;3.13;1.20;;;;;;;8.58;100.00;92574.50;2088351;28;20068;-85
2023/08/04 01:14:56;;;;;;;3.28;1.10;;;;;;;8.74;100.00;92570.34;2081496;28;20424;-85
2023/08/04 01:15:58;;;;;;;3.67;1.10;;;;;;;8.73;100.00;92566.91;2089742;28;20390;-85
2023/08/04 01:17:20;;;;;;;2.95;0.90;;;;;;;8.67;100.00;92565.91;2093523;28;20017;-85
2023/08/04 01:18:24;;;;;;;3.78;1.38;;;;;;;8.51;100.00;92568.56;2095938;28;20039;-82
2023/08/04 01:19:25;;;;;;;2.08;0.90;;;;;;;8.40;100.00;92568.81;2089715;28;20021;-83
2023/08/04 01:20:27;;;;;;;2.85;1.00;;;;;;;8.34;100.00;92565.13;2083903;28;20068;-83
2023/08/04 01:21:41;;;;;;;2.75;1.13;;;;;;;8.41;100.00;92569.56;2089612;28;20021;-84
2023/08/04 01:22:42;;;;;;;2.85;1.10;;;;;;;8.38;100.00;92565.06;2091226;28;20045;-84
2023/08/04 01:23:43;;;;;;;3.15;1.13;;;;;;;8.39;100.00;92561.25;2094367;28;20031;-84
2023/08/04 01:24:44;;;;;;;2.47;0.90;;;;;;;8.39;100.00;92570.00;2081464;28;20116;-83
2023/08/04 01:25:46;;;;;;;3.17;0.85;;;;;;;8.41;100.00;92565.00;2088902;28;20036;-84
2023/08/04 01:26:48;;;;;;;5.32;1.00;;;;;;;8.48;100.00;92567.50;2083686;28;20024;-83
2023/08/04 01:27:58;;;;;;;5.90;1.05;;;;;;;8.46;100.00;92572.47;2090057;28;20116;-84
2023/08/04 01:29:02;;;;;;;3.20;0.93;;;;;;;8.32;100.00;92562.13;2092974;28;20029;-85
2023/08/04 01:30:05;;;;;;;3.83;0.95;;;;;;;8.39;100.00;92567.31;2091764;28;20112;-85
2023/08/04 01:31:06;;;;;;;6.75;1.20;;;;;;;8.25;100.00;92564.94;2090017;28;20083;-84
2023/08/04 01:32:07;;;;;;;1.33;0.93;;;;;;;8.21;100.00;92567.69;2083805;28;20133;-84
2023/08/04 01:33:08;;;;;;;6.78;1.00;;;;;;;8.29;100.00;92565.59;2091906;28;20024;-84
2023/08/04 01:34:09;;;;;;;3.40;0.90;;;;;;;8.33;100.00;92564.34;2090905;28;20129;-84
2023/08/04 01:35:11;;;;;;;2.03;0.80;;;;;;;8.39;100.00;92574.56;2080892;28;20061;-84
2023/08/04 01:36:12;;;;;;;7.65;1.10;;;;;;;8.30;100.00;92567.13;2089517;28;20025;-83
2023/08/04 01:37:13;;;;;;;3.83;1.30;;;;;;;8.27;100.00;92574.00;2095224;28;20382;-83
2023/08/04 01:38:14;;;;;;;1.40;0.80;;;;;;;8.36;100.00;92578.78;2111782;28;20108;-85
2023/08/04 01:39:15;;;;;;;5.47;1.20;;;;;;;8.35;100.00;92569.28;2098006;28;20024;-85
2023/08/04 01:40:16;;;;;;;3.78;0.90;;;;;;;8.36;100.00;92570.78;2094848;28;20428;-82
2023/08/04 01:41:17;;;;;;;4.60;1.00;;;;;;;8.46;100.00;92575.13;2100095;28;20510;-82
2023/08/04 01:42:18;;;;;;;2.78;1.17;;;;;;;8.52;100.00;92568.16;2089087;28;20020;-84
2023/08/04 01:43:20;;;;;;;4.93;0.90;;;;;;;8.46;100.00;92569.06;2081750;28;20025;-84
2023/08/04 01:44:21;;;;;;;5.38;1.15;;;;;;;8.45;100.00;92568.31;2089897;28;20082;-84
2023/08/04 01:45:22;;;;;;;1.48;0.88;;;;;;;8.42;100.00;92563.06;2096620;28;20058;-85
2023/08/04 01:46:25;;;;;;;3.92;0.90;;;;;;;8.44;100.00;92564.16;2097864;28;20354;-83
2023/08/04 01:47:25;;;;;;;6.43;0.98;;;;;;;8.33;100.00;92563.63;2096114;28;20066;-86
2023/08/04 01:48:27;;;;;;;3.67;0.90;;;;;;;8.39;100.00;92567.31;2093106;28;20032;-84
2023/08/04 01:49:38;;;;;;;6.03;1.10;;;;;;;8.45;100.00;92565.66;2097586;28;20113;-84
2023/08/04 01:50:39;;;;;;;3.80;1.10;;;;;;;8.48;100.00;92566.75;2087736;28;20029;-83
2023/08/04 01:51:41;;;;;;;1.58;0.88;;;;;;;8.50;100.00;92567.81;2090326;28;20028;-84
2023/08/04 01:52:42;;;;;;;2.78;0.80;;;;;;;8.40;100.00;92568.06;2073386;28;20030;-81
2023/08/04 01:53:42;;;;;;;3.28;1.33;;;;;;;8.40;100.00;92563.50;2092902;28;20099;-83
2023/08/04 01:54:43;;;;;;;5.40;1.15;;;;;;;8.46;100.00;92556.50;2093167;28;20033;-86
2023/08/04 01:55:47;;;;;;;4.28;1.30;;;;;;;8.47;100.00;92563.34;2081887;28;20021;-83
2023/08/04 01:56:48;;;;;;;5.13;1.10;;;;;;;8.50;100.00;92562.50;2084915;28;20032;-82
2023/08/04 01:57:49;;;;;;;2.97;1.00;;;;;;;8.52;100.00;92564.75;2092249;28;20412;-85
2023/08/04 01:58:52;;;;;;;3.58;0.93;;;;;;;8.57;100.00;92564.25;2085505;28;20060;-84
2023/08/04 01:59:53;;;;;;;2.55;1.20;;;;;;;8.56;100.00;92568.84;2089840;28;20391;-83
2023/08/04 02:00:54;;;;;;;1.95;0.90;;;;;;;8.55;100.00;92567.31;2088161;28;20029;-83
2023/08/04 02:01:54;;;;;;;3.15;0.98;;;;;;;8.52;100.00;92568.16;2103024;28;20024;-83
2023/08/04 02:02:55;;;;;;;3.35;0.98;;;;;;;8.52;100.00;92572.75;2097021;28;20063;-83
2023/08/04 02:03:56;;;;;;;2.50;1.08;;;;;;;8.63;100.00;92567.16;2095541;28;20031;-84
2023/08/04 02:04:57;;;;;;;6.65;1.33;;;;;;;8.74;100.00;92568.41;2097321;28;20024;-82
2023/08/04 02:05:58;;;;;;;2.00;0.93;;;;;;;8.79;100.00;92567.16;2084812;28;20025;-85
2023/08/04 02:06:59;;;;;;;4.10;1.00;;;;;;;8.79;100.00;92567.91;2089380;28;20112;-85
2023/08/04 02:08:00;;;;;;;5.60;1.13;;;;;;;8.78;100.00;92571.75;2089583;28;20021;-83
2023/08/04 02:09:03;;;;;;;2.85;0.95;;;;;;;8.79;100.00;92573.25;2081017;28;20025;-84
2023/08/04 02:10:04;;;;;;;3.53;1.10;;;;;;;8.85;100.00;92565.50;2090391;28;20040;-84
2023/08/04 02:11:05;;;;;;;6.35;1.30;;;;;;;8.92;100.00;92569.91;2101283;28;20167;-85
2023/08/04 02:12:07;;;;;;;2.25;1.15;;;;;;;8.92;100.00;92554.66;2085210;28;20491;-84
2023/08/04 02:13:08;;;;;;;9.18;1.00;;;;;;;8.96;100.00;92551.91;2097560;28;20105;-84
2023/08/04 02:14:09;;;;;;;4.47;1.13;;;;;;;9.02;100.00;92563.56;2104433;28;20031;-85
2023/08/04 02:15:10;;;;;;;6.70;1.27;;;;;;;8.97;100.00;92558.75;2105666;28;20410;-86
2023/08/04 02:16:11;;;;;;;3.05;1.10;;;;;;;8.93;100.00;92563.41;2097591;28;20035;-83
2023/08/04 02:17:12;;;;;;;7.07;1.33;;;;;;;8.93;100.00;92571.41;2094940;28;20441;-84
2023/08/04 02:18:13;;;;;;;5.90;1.20;;;;;;;8.96;100.00;92566.00;2099946;28;20514;-84
2023/08/04 02:19:14;;;;;;;5.55;1.30;;;;;;;8.93;100.00;92566.81;2105445;28;20376;-84
2023/08/04 02:20:15;;;;;;;4.82;1.20;;;;;;;9.06;100.00;92572.22;2106853;28;20116;-84
2023/08/04 02:22:23;;;;;;;;;;;;;;;8.99;100.00;92573.13;2148091;27;20117;-82
2023/08/04 02:23:24;;;;;;;2.63;1.15;;;;;;;9.03;100.00;92568.47;2129750;27;19922;-83
2023/08/04 02:24:25;;;;;;;3.97;1.65;;;;;;;9.06;100.00;92575.63;2113282;27;20054;-83
2023/08/04 02:25:26;;;;;;;2.78;1.27;;;;;;;8.97;100.00;92572.81;2120974;27;20114;-84
2023/08/04 02:26:26;;;;;;;4.80;1.38;;;;;;;8.97;100.00;92582.72;2112735;27;20039;-82
2023/08/04 02:27:27;;;;;;;3.03;1.27;;;;;;;8.98;100.00;92576.97;2107138;28;20103;-81
2023/08/04 02:28:28;;;;;;;6.82;1.52;;;;;;;8.99;100.00;92572.38;2112472;28;20408;-82
2023/08/04 02:29:29;;;;;;;3.70;1.52;;;;;;;9.00;100.00;92574.66;2104467;28;20032;-82
2023/08/04 02:30:30;;;;;;;3.88;1.05;;;;;;;9.07;100.00;92579.03;2104270;28;20024;-82
2023/08/04 02:31:32;;;;;;;3.22;1.20;;;;;;;9.12;100.00;92575.13;2112663;28;20028;-82
2023/08/04 02:32:33;;;;;;;3.33;1.35;;;;;;;9.23;100.00;92570.28;2112198;28;20024;-86
2023/08/04 02:33:34;;;;;;;4.75;1.60;;;;;;;9.20;100.00;92573.78;2114861;28;20024;-82
2023/08/04 02:34:35;;;;;;;2.33;1.20;;;;;;;9.22;100.00;92566.88;2113200;28;20027;-84
2023/08/04 02:35:36;;;;;;;4.20;1.23;;;;;;;9.24;100.00;92564.53;2112445;28;20583;-83
2023/08/04 02:36:37;;;;;;;4.30;1.00;;;;;;;9.27;100.00;92561.03;2113081;28;20027;-83
2023/08/04 02:37:38;;;;;;;4.95;1.30;;;;;;;9.39;100.00;92558.81;2105692;28;20020;-83
2023/08/04 02:38:39;;;;;;;4.38;1.17;;;;;;;9.45;100.00;92554.47;2105518;28;20024;-83
2023/08/04 02:39:40;;;;;;;4.68;1.50;;;;;;;9.32;100.00;92551.75;2104729;28;20512;-83
2023/08/04 02:40:41;;;;;;;2.15;1.23;;;;;;;9.43;100.00;92552.22;2110084;27;20100;-84
2023/08/04 02:41:42;;;;;;;5.68;1.20;;;;;;;9.41;100.00;92557.22;2120885;27;20019;-83
2023/08/04 02:42:43;;;;;;;3.40;1.20;;;;;;;9.44;100.00;92556.41;2121342;27;20023;-83
2023/08/04 02:43:44;;;;;;;3.78;1.50;;;;;;;9.39;100.00;92564.88;2117168;28;20028;-84
2023/08/04 02:44:45;;;;;;;2.92;1.98;;;;;;;9.29;100.00;92560.59;2121347;28;20054;-83
2023/08/04 02:45:50;;;;;;;2.20;1.08;;;;;;;9.27;100.00;92565.59;2112674;27;20104;-83
2023/08/04 02:46:54;;;;;;;3.35;1.40;;;;;;;9.25;100.00;92563.34;2109780;27;20056;-84
2023/08/04 02:47:55;;;;;;;7.40;1.58;;;;;;;9.19;100.00;92559.69;2113336;28;20039;-84
2023/08/04 02:48:56;;;;;;;3.30;1.13;;;;;;;9.25;100.00;92562.59;2112557;28;20020;-83
2023/08/04 02:49:57;;;;;;;3.28;1.20;;;;;;;9.28;100.00;92556.44;2112959;28;20039;-83
2023/08/04 02:51:04;;;;;;;3.28;1.20;;;;;;;9.26;100.00;92556.88;2104560;28;20039;-84
2023/08/04 02:52:08;;;;;;;5.68;1.33;;;;;;;9.24;100.00;92555.78;2109978;27;20016;-83
2023/08/04 02:53:09;;;;;;;6.60;1.77;;;;;;;9.25;100.00;92557.25;2113505;27;20461;-83
2023/08/04 02:54:10;;;;;;;3.13;1.30;;;;;;;9.24;100.00;92564.53;2121029;27;20023;-83
2023/08/04 02:55:12;;;;;;;3.10;1.02;;;;;;;9.25;100.00;92557.25;2117171;28;20038;-84
2023/08/04 02:56:15;;;;;;;5.45;1.30;;;;;;;9.20;100.00;92558.53;2104663;28;20032;-83
2023/08/04 02:57:16;;;;;;;3.58;1.55;;;;;;;9.16;100.00;92565.13;2113430;27;20476;-83
2023/08/04 02:58:17;;;;;;;6.80;1.42;;;;;;;9.18;100.00;92560.13;2112985;28;20024;-83
2023/08/04 02:59:17;;;;;;;2.75;1.40;;;;;;;9.19;100.00;92567.69;2113868;28;20051;-82
2023/08/04 03:00:18;;;;;;;4.22;1.10;;;;;;;9.21;100.00;92568.03;2121005;27;20042;-83
2023/08/04 03:01:19;;;;;;;5.85;1.40;;;;;;;9.27;100.00;92576.28;2112932;28;20081;-85
2023/08/04 03:02:21;;;;;;;6.07;1.33;;;;;;;9.29;100.00;92572.00;2109842;27;20019;-83
2023/08/04 03:03:22;;;;;;;2.97;1.52;;;;;;;9.31;100.00;92568.94;2120718;27;20109;-83
2023/08/04 03:04:23;;;;;;;5.20;1.50;;;;;;;9.34;100.00;92563.50;2112875;28;20396;-83
2023/08/04 03:05:24;;;;;;;4.32;1.50;;;;;;;9.35;100.00;92564.25;2112600;28;20020;-84
2023/08/04 03:06:25;;;;;;;6.20;1.63;;;;;;;9.32;100.00;92565.84;2104325;28;20036;-83
2023/08/04 03:07:26;;;;;;;5.35;2.17;;;;;;;9.32;100.00;92563.16;2117517;27;20038;-85
2023/08/04 03:08:28;;;;;;;3.42;1.40;;;;;;;9.31;100.00;92564.34;2135795;27;20395;-83
2023/08/04 03:09:29;;;;;;;2.15;1.20;;;;;;;9.39;100.00;92564.16;2104604;28;20511;-83
2023/08/04 03:10:30;;;;;;;2.60;1.30;;;;;;;9.40;100.00;92565.66;2100291;28;20021;-83
2023/08/04 03:11:30;;;;;;;2.95;1.40;;;;;;;9.31;100.00;92560.94;2104365;28;20111;-83
2023/08/04 03:12:31;;;;;;;2.97;1.17;;;;;;;9.40;100.00;92558.41;2111057;28;20020;-83
2023/08/04 03:13:32;;;;;;;4.07;1.25;;;;;;;9.44;100.00;92558.28;2116064;27;20529;-82
2023/08/04 03:14:33;;;;;;;6.00;1.40;;;;;;;9.44;100.00;92563.63;2112703;27;20023;-83
2023/08/04 03:15:35;;;;;;;4.38;1.65;;;;;;;9.46;100.00;92567.38;2120677;27;20035;-83
2023/08/04 03:16:36;;;;;;;5.05;1.50;;;;;;;9.48;100.00;92562.38;2124220;27;20024;-85
2023/08/04 03:17:36;;;;;;;3.78;1.50;;;;;;;9.58;100.00;92557.94;2095685;28;20060;-83
2023/08/04 03:18:37;;;;;;;4.57;1.40;;;;;;;9.59;100.00;92572.75;2106373;28;20024;-84
2023/08/04 03:19:38;;;;;;;7.53;1.50;;;;;;;9.48;100.00;92565.06;2103240;28;20394;-86
2023/08/04 03:20:40;;;;;;;4.25;1.50;;;;;;;9.47;100.00;92565.47;2095480;28;20027;-83
2023/08/04 03:21:41;;;;;;;2.85;1.60;;;;;;;9.38;100.00;92558.06;2103924;28;20028;-82
2023/08/04 03:22:42;;;;;;;5.55;1.35;;;;;;;9.46;100.00;92563.97;2111069;28;20036;-83
2023/08/04 03:23:43;;;;;;;7.63;1.50;;;;;;;9.51;100.00;92563.44;2115448;27;20023;-83
2023/08/04 03:24:44;;;;;;;5.97;1.50;;;;;;;9.54;100.00;92565.28;2121138;28;20071;-83
2023/08/04 03:25:45;;;;;;;6.10;1.65;;;;;;;9.53;100.00;92559.19;2105986;28;20401;-83
2023/08/04 03:26:46;;;;;;;5.22;1.55;;;;;;;9.52;100.00;92563.00;2103924;28;20064;-83
2023/08/04 03:27:47;;;;;;;3.90;1.40;;;;;;;9.57;100.00;92562.53;2121052;27;20026;-83
2023/08/04 03:28:48;;;;;;;2.78;1.40;;;;;;;9.50;100.00;92557.38;2120310;27;20022;-85
2023/08/04 03:29:49;;;;;;;4.82;1.42;;;;;;;9.44;100.00;92561.72;2104096;28;20016;-86
2023/08/04 03:30:50;;;;;;;4.80;1.50;;;;;;;9.49;100.00;92553.22;2103907;28;20024;-84
2023/08/04 03:31:51;;;;;;;4.22;1.42;;;;;;;9.50;100.00;92565.38;2103826;28;20080;-84
2023/08/04 03:32:52;;;;;;;3.13;1.38;;;;;;;9.58;100.00;92564.00;2095657;28;20031;-83
2023/08/04 03:33:53;;;;;;;3.83;1.52;;;;;;;9.58;100.00;92560.59;2093754;28;20016;-83
2023/08/04 03:34:54;;;;;;;7.53;1.95;;;;;;;9.50;100.00;92553.94;2107239;28;20484;-83
2023/08/04 03:35:54;;;;;;;3.47;1.42;;;;;;;9.52;100.00;92552.34;2106430;28;20028;-82
2023/08/04 03:36:55;;;;;;;4.47;1.70;;;;;;;9.67;100.00;92557.31;2106629;28;20051;-84
2023/08/04 03:37:56;;;;;;;2.75;1.30;;;;;;;9.63;100.00;92560.06;2107048;28;20048;-83
2023/08/04 03:38:57;;;;;;;5.00;1.95;;;;;;;9.52;100.00;92567.59;2098119;28;20039;-83
2023/08/04 03:39:58;;;;;;;2.53;1.42;;;;;;;9.46;100.00;92561.31;2115563;28;20046;-83
2023/08/04 03:40:59;;;;;;;4.80;1.40;;;;;;;9.41;100.00;92567.91;2110774;28;20024;-82
2023/08/04 03:42:00;;;;;;;2.83;1.42;;;;;;;9.49;100.00;92563.13;2095413;28;20115;-84
2023/08/04 03:43:01;;;;;;;6.72;1.42;;;;;;;9.65;100.00;92562.31;2110908;28;20032;-83
2023/08/04 03:44:02;;;;;;;3.38;1.50;;;;;;;9.67;100.00;92560.72;2121189;27;20015;-83
2023/08/04 03:45:05;;;;;;;3.22;1.42;;;;;;;9.71;100.00;92563.31;2114347;28;20051;-83
2023/08/04 03:46:06;;;;;;;4.65;1.40;;;;;;;9.57;100.00;92557.19;2090537;28;20035;-83
2023/08/04 03:47:07;;;;;;;2.50;1.30;;;;;;;9.50;100.00;92556.63;2093539;28;20492;-83
2023/08/04 03:48:08;;;;;;;3.75;2.00;;;;;;;9.47;100.00;92560.13;2098748;28;20056;-83
2023/08/04 03:49:09;;;;;;;3.63;1.38;;;;;;;9.51;100.00;92563.44;2085207;28;20056;-83
2023/08/04 03:50:10;;;;;;;4.25;1.55;;;;;;;9.52;100.00;92562.28;2099549;28;20060;-85
2023/08/04 03:51:10;;;;;;;4.22;1.70;;;;;;;9.47;100.00;92555.53;2100006;28;20031;-84
2023/08/04 03:52:11;;;;;;;6.93;1.33;;;;;;;9.50;100.00;92556.63;2110630;28;20038;-83
2023/08/04 03:53:22;;;;;;;3.78;1.42;;;;;;;9.55;100.00;92551.50;2098393;28;20477;-82
2023/08/04 03:54:23;;;;;;;3.88;1.35;;;;;;;9.59;100.00;92551.41;2084589;28;20029;-83
2023/08/04 03:55:24;;;;;;;2.95;1.50;;;;;;;9.53;100.00;92553.88;2087492;28;20464;-83
2023/08/04 03:56:25;;;;;;;4.35;1.52;;;;;;;9.55;100.00;92540.09;2106916;28;20020;-83
2023/08/04 03:57:26;;;;;;;5.75;1.67;;;;;;;9.54;100.00;92546.59;2100455;28;20432;-83
2023/08/04 03:58:27;;;;;;;3.33;1.35;;;;;;;9.51;100.00;92550.84;2106674;28;20039;-84
2023/08/04 03:59:28;;;;;;;6.13;1.60;;;;;;;9.47;100.00;92546.78;2123553;27;20440;-83
2023/08/04 04:00:31;;;;;;;3.38;1.40;;;;;;;9.56;100.00;92544.25;2111244;28;20024;-82
2023/08/04 04:01:31;;;;;;;3.33;1.50;;;;;;;9.57;100.00;92545.78;2090022;28;20037;-83
2023/08/04 04:02:33;;;;;;;5.28;1.60;;;;;;;9.52;100.00;92541.66;2104977;28;20081;-83
2023/08/04 04:03:34;;;;;;;4.15;1.50;;;;;;;9.54;100.00;92547.34;2098040;28;20458;-83
2023/08/04 04:04:35;;;;;;;3.45;1.42;;;;;;;9.54;100.00;92544.69;2090102;28;20058;-82
2023/08/04 04:05:38;;;;;;;5.03;1.50;;;;;;;9.53;100.00;92540.53;2110485;28;20042;-82
2023/08/04 04:06:40;;;;;;;2.20;1.30;;;;;;;9.40;100.00;92547.00;2098784;28;20035;-83
2023/08/04 04:07:41;;;;;;;4.85;1.90;;;;;;;9.40;100.00;92557.66;2098014;28;20109;-83
2023/08/04 04:08:42;;;;;;;3.08;1.50;;;;;;;9.32;100.00;92551.75;2096140;28;20457;-84
2023/08/04 04:09:43;;;;;;;10.98;1.73;;;;;;;9.32;100.00;92551.75;2090156;28;20059;-84
2023/08/04 04:10:44;;;;;;;2.95;1.48;;;;;;;9.27;100.00;92553.03;2100653;28;20027;-83
2023/08/04 04:11:46;;;;;;;3.55;1.30;;;;;;;9.26;100.00;92556.09;2115170;27;20051;-82
2023/08/04 04:12:47;;;;;;;4.10;1.50;;;;;;;9.32;100.00;92555.16;2090095;28;20474;-83
2023/08/04 04:13:48;;;;;;;5.40;1.63;;;;;;;9.32;100.00;92562.44;2087445;28;20074;-83
2023/08/04 04:14:49;;;;;;;3.10;1.38;;;;;;;9.26;100.00;92553.44;2106828;28;20074;-83
2023/08/04 04:15:50;;;;;;;3.53;1.10;;;;;;;9.31;100.00;92552.94;2114532;28;20453;-82
2023/08/04 04:16:50;;;;;;;9.32;1.40;;;;;;;9.31;100.00;92555.59;2103926;28;20349;-83
2023/08/04 04:17:51;;;;;;;4.53;1.30;;;;;;;9.27;100.00;92557.59;2106606;28;20028;-83
2023/08/04 04:18:52;;;;;;;2.92;1.38;;;;;;;9.25;100.00;92552.69;2106421;28;20023;-83
2023/08/04 04:19:53;;;;;;;6.35;1.40;;;;;;;9.27;100.00;92550.34;2099063;28;20127;-82
2023/08/04 04:20:54;;;;;;;7.10;1.80;;;;;;;9.21;100.00;92549.34;2097860;28;20033;-85
2023/08/04 04:21:56;;;;;;;3.63;1.50;;;;;;;9.17;100.00;92554.03;2102257;28;20103;-83
2023/08/04 04:22:58;;;;;;;7.78;1.75;;;;;;;9.13;100.00;92548.06;2102050;28;20017;-83
2023/08/04 04:23:59;;;;;;;2.78;1.60;;;;;;;9.08;100.00;92551.97;2089373;28;20025;-82
2023/08/04 04:25:00;;;;;;;5.65;1.60;;;;;;;9.01;100.00;92549.50;2081731;28;20044;-84
2023/08/04 04:26:07;;;;;;;4.47;1.42;;;;;;;9.13;100.00;92552.63;2097826;28;20028;-83
2023/08/04 04:27:08;;;;;;;6.35;1.60;;;;;;;9.07;100.00;92555.81;2093400;28;20123;-83
2023/08/04 04:28:09;;;;;;;6.18;1.30;;;;;;;9.10;100.00;92556.16;2090229;28;20021;-84
2023/08/04 04:29:10;;;;;;;2.13;1.25;;;;;;;9.09;100.00;92550.06;2089618;28;20044;-83
2023/08/04 04:30:11;;;;;;;4.97;1.50;;;;;;;9.04;100.00;92566.53;2098306;28;20028;-83
2023/08/04 04:31:12;;;;;;;2.65;1.50;;;;;;;9.05;100.00;92558.16;2106347;28;20535;-82
2023/08/04 04:32:17;;;;;;;6.70;1.90;;;;;;;9.09;100.00;92560.72;2103278;28;20612;-83
2023/08/04 04:33:18;;;;;;;4.75;1.38;;;;;;;9.15;100.00;92566.28;2112342;28;20024;-83
2023/08/04 04:34:19;;;;;;;2.58;1.33;;;;;;;9.17;100.00;92559.34;2104752;28;20039;-82
2023/08/04 04:35:20;;;;;;;5.18;1.58;;;;;;;9.22;100.00;92566.09;2099116;28;20378;-83
2023/08/04 04:36:20;;;;;;;4.75;1.40;;;;;;;9.33;100.00;92566.59;2097887;28;20056;-83
2023/08/04 04:37:21;;;;;;;3.60;1.27;;;;;;;9.45;100.00;92568.56;2097706;28;20097;-83
2023/08/04 04:38:28;;;;;;;2.97;1.13;;;;;;;9.67;100.00;92570.66;2098296;28;20358;-82
2023/08/04 04:39:29;;;;;;;2.95;1.45;;;;;;;9.74;100.00;92573.13;2099757;28;20056;-82
2023/08/04 04:40:30;;;;;;;7.55;1.52;;;;;;;9.80;100.00;92572.19;2109427;28;20016;-82
2023/08/04 04:41:31;;;;;;;8.60;1.63;;;;;;;9.71;100.00;92568.66;2097963;28;20064;-85
2023/08/04 04:42:33;;;;;;;4.45;1.67;;;;;;;9.63;100.00;92565.41;2095899;28;20680;-83
2023/08/04 04:43:35;;;;;;;3.33;1.30;;;;;;;9.79;100.00;92564.63;2093109;28;20025;-83
2023/08/04 04:44:36;;;;;;;2.00;1.27;;;;;;;9.81;100.00;92568.34;2090167;28;20024;-83
2023/08/04 04:45:40;;;;;;;7.38;1.80;;;;;;;9.82;100.00;92575.16;2088576;28;20059;-83
2023/08/04 04:46:41;;;;;;;4.60;1.35;;;;;;;9.80;100.00;92566.09;2105574;28;20111;-83
2023/08/04 04:47:42;;;;;;;4.57;1.30;;;;;;;9.77;100.00;92577.63;2106773;28;20074;-83
2023/08/04 04:48:43;;;;;;;2.45;1.25;;;;;;;9.79;100.00;92570.69;2097669;28;20044;-82
2023/08/04 04:49:44;;;;;;;3.65;1.25;;;;;;;9.81;100.00;92573.69;2098199;28;20020;-82
2023/08/04 04:50:45;;;;;;;2.40;1.27;;;;;;;9.84;100.00;92574.75;2089636;28;20453;-82
2023/08/04 04:51:46;;;;;;;2.50;1.30;;;;;;;9.88;100.00;92572.75;2089568;28;20021;-82
2023/08/04 04:52:47;;;;;;;2.95;1.17;;;;;;;9.90;100.00;92572.31;2097138;28;20021;-83